Jade — 9HVS8 — position and weather

sailwx.info

Track history (hours):
 
Tides and Currents Weather Stations Pressure Air Temp Water Temp Dewpoint Dewpoint Depression Visibility Wind Speed Wind Dir Waves Ship Positions

Jade

Last reported at 2015-May-04 07:33 UTC. Time now 2015-May-04 08:01 UTC.
Position N 35°56' E 014°41'.

Length 176 m; draft 9.6 m.

Type: Ship (hazmat cat C). MMSI: 256491000.

Date/timePositionNaut miles runAvg speedWind from/ knotsBaromVisibWave heightAir tempDewpointWater temp
2015-May-04 07:33N 35°56' E 014°41'8 7.7
2015-May-04 06:33N 35°55' E 014°51'2 2.1
2015-May-04 05:33N 35°55' E 014°53'0 0.0
2015-May-04 04:33N 35°55' E 014°53'0 0.0
2015-May-04 03:27N 35°55' E 014°53'0 0.1
2015-May-04 00:33N 35°55' E 014°53'0 0.0
2015-May-03 21:33N 35°55' E 014°53'0 0.1
2015-May-03 20:15N 35°55' E 014°53'0 0.1
2015-May-03 19:33N 35°55' E 014°53'0 0.0
2015-May-03 18:33N 35°55' E 014°53'0 0.0
2015-May-03 17:33N 35°55' E 014°53'0 0.0
2015-May-03 16:33N 35°55' E 014°53'0 0.0
2015-May-03 15:33N 35°55' E 014°53'0 0.0
2015-May-03 12:27N 35°55' E 014°53'0 0.1
2015-May-03 11:30N 35°55' E 014°53'1 0.7
2015-May-03 10:30N 35°55' E 014°54'2 2.6
2015-May-03 09:33N 35°56' E 014°57'3 3.0
2015-May-03 08:33N 35°55' E 014°54'7 6.6
2015-May-03 07:33N 35°56' E 014°45'7 6.5
2015-May-03 06:33N 35°58' E 014°38'1 1.3
2015-May-03 05:33N 35°58' E 014°36'2 2.2
2015-May-03 04:33N 35°58' E 014°39'1212.2
2015-May-03 03:33N 35°57' E 014°54'1413.6
2015-May-03 02:33N 35°57' E 015°11'1513.4
2015-May-03 01:24N 35°57' E 015°30'1213.7
2015-May-03 00:31N 35°58' E 015°45'1313.8
2015-May-02 23:33N 35°59' E 016°01'35013.4
2015-May-01 21:30N 36°25' E 023°13'2913.7
2015-May-01 19:25N 36°49' E 023°33'1213.7
2015-May-01 18:31N 36°60' E 023°41'1313.7
2015-May-01 17:33N 37°11' E 023°50'1313.7
2015-May-01 16:33N 37°22' E 023°59'3013.5
2015-May-01 14:21N 37°47' E 024°21'1214.0
2015-May-01 13:30N 37°54' E 024°33'293 6.6
2015-Apr-29 17:24N 41°16' E 029°09'10 8.2
2015-Apr-29 16:09N 41°25' E 029°15'8 0.4
2015-Apr-28 19:17N 41°32' E 029°20'1 1.0
2015-Apr-28 18:26N 41°31' E 029°20'1 1.1
2015-Apr-28 17:32N 41°30' E 029°21'1 0.9
2015-Apr-28 16:32N 41°29' E 029°21'2 0.5
2015-Apr-28 12:32N 41°28' E 029°24'0 0.4
2015-Apr-28 11:32N 41°28' E 029°24'0 0.3
2015-Apr-28 10:32N 41°28' E 029°24'0 0.3
2015-Apr-28 09:32N 41°28' E 029°25'0 0.2
2015-Apr-28 08:32N 41°28' E 029°25'0 0.2
2015-Apr-28 07:29N 41°28' E 029°25'0 0.2
2015-Apr-28 06:32N 41°28' E 029°25'32211.5
2015-Apr-27 02:33N 42°18' E 036°33'7013.6
2015-Apr-26 21:25N 42°18' E 038°07'  
Track history (hours):
 
Tides and Currents Weather Stations Pressure Air Temp Water Temp Dewpoint Dewpoint Depression Visibility Wind Speed Wind Dir Waves Ship Positions

Jade

Last reported at 2015-May-04 07:33 UTC. Time now 2015-May-04 08:01 UTC.
Position N 35°56' E 014°41'.

Length 176 m; draft 9.6 m.

Type: Ship (hazmat cat C). MMSI: 256491000.

Date/timePositionNaut miles runAvg speedWind from/ knotsBaromVisibWave heightAir tempDewpointWater temp
2015-May-04 07:33N 35°56' E 014°41'8 7.7
2015-May-04 06:33N 35°55' E 014°51'2 2.1
2015-May-04 05:33N 35°55' E 014°53'0 0.0
2015-May-04 04:33N 35°55' E 014°53'0 0.0
2015-May-04 03:27N 35°55' E 014°53'0 0.1
2015-May-04 00:33N 35°55' E 014°53'0 0.0
2015-May-03 21:33N 35°55' E 014°53'0 0.1
2015-May-03 20:15N 35°55' E 014°53'0 0.1
2015-May-03 19:33N 35°55' E 014°53'0 0.0
2015-May-03 18:33N 35°55' E 014°53'0 0.0
2015-May-03 17:33N 35°55' E 014°53'0 0.0
2015-May-03 16:33N 35°55' E 014°53'0 0.0
2015-May-03 15:33N 35°55' E 014°53'0 0.0
2015-May-03 12:27N 35°55' E 014°53'0 0.1
2015-May-03 11:30N 35°55' E 014°53'1 0.7
2015-May-03 10:30N 35°55' E 014°54'2 2.6
2015-May-03 09:33N 35°56' E 014°57'3 3.0
2015-May-03 08:33N 35°55' E 014°54'7 6.6
2015-May-03 07:33N 35°56' E 014°45'7 6.5
2015-May-03 06:33N 35°58' E 014°38'1 1.3
2015-May-03 05:33N 35°58' E 014°36'2 2.2
2015-May-03 04:33N 35°58' E 014°39'1212.2
2015-May-03 03:33N 35°57' E 014°54'1413.6
2015-May-03 02:33N 35°57' E 015°11'1513.4
2015-May-03 01:24N 35°57' E 015°30'1213.7
2015-May-03 00:31N 35°58' E 015°45'1313.8
2015-May-02 23:33N 35°59' E 016°01'35013.4
2015-May-01 21:30N 36°25' E 023°13'2913.7
2015-May-01 19:25N 36°49' E 023°33'1213.7
2015-May-01 18:31N 36°60' E 023°41'1313.7
2015-May-01 17:33N 37°11' E 023°50'1313.7
2015-May-01 16:33N 37°22' E 023°59'3013.5
2015-May-01 14:21N 37°47' E 024°21'1214.0
2015-May-01 13:30N 37°54' E 024°33'293 6.6
2015-Apr-29 17:24N 41°16' E 029°09'10 8.2
2015-Apr-29 16:09N 41°25' E 029°15'8 0.4
2015-Apr-28 19:17N 41°32' E 029°20'1 1.0
2015-Apr-28 18:26N 41°31' E 029°20'1 1.1
2015-Apr-28 17:32N 41°30' E 029°21'1 0.9
2015-Apr-28 16:32N 41°29' E 029°21'2 0.5
2015-Apr-28 12:32N 41°28' E 029°24'0 0.4
2015-Apr-28 11:32N 41°28' E 029°24'0 0.3
2015-Apr-28 10:32N 41°28' E 029°24'0 0.3
2015-Apr-28 09:32N 41°28' E 029°25'0 0.2
2015-Apr-28 08:32N 41°28' E 029°25'0 0.2
2015-Apr-28 07:29N 41°28' E 029°25'0 0.2
2015-Apr-28 06:32N 41°28' E 029°25'32211.5
2015-Apr-27 02:33N 42°18' E 036°33'7013.6
2015-Apr-26 21:25N 42°18' E 038°07'  

Dump ship's entire track history